Time;durP1;ratioP1;P1;durP2;ratioP2;P2;SDS_P1;SDS_P2;PMS_P1;PMS_P2;Temp;Humidity;BMP_temperature;BMP_pressure;BME280_temperature;BME280_humidity;BME280_pressure;Samples;Min_cycle;Max_cycle;Signal;HPM_P1;HPM_P2
2023/01/06 00:00:25;;;;;;;67.50;50.75;;;16.40;78.30;;;;;;4927636;28;91275;-53
2023/01/06 00:02:51;;;;;;;67.68;50.38;;;16.40;78.30;;;;;;4931159;28;93225;-49
2023/01/06 00:05:16;;;;;;;67.80;50.72;;;16.40;78.30;;;;;;4930144;28;91987;-52
2023/01/06 00:07:43;;;;;;;69.47;50.70;;;16.40;78.20;;;;;;4919947;28;90062;-54
2023/01/06 00:10:10;;;;;;;68.18;50.88;;;16.30;78.30;;;;;;4922432;28;93571;-54
2023/01/06 00:12:36;;;;;;;67.20;50.42;;;16.30;78.30;;;;;;4919792;28;91583;-52
2023/01/06 00:15:02;;;;;;;70.05;51.00;;;16.30;78.10;;;;;;4918023;28;91780;-53
2023/01/06 00:17:28;;;;;;;66.78;49.92;;;16.30;78.10;;;;;;4926713;28;89937;-55
2023/01/06 00:19:53;;;;;;;67.95;50.53;;;16.30;78.00;;;;;;4922072;28;90335;-51
2023/01/06 00:22:31;;;;;;;67.68;50.25;;;16.30;78.00;;;;;;4931474;28;89623;-53
2023/01/06 00:24:57;;;;;;;67.60;50.55;;;16.30;78.10;;;;;;4925609;28;90366;-55
2023/01/06 00:27:23;;;;;;;68.07;50.78;;;16.30;78.80;;;;;;4912922;28;92383;-52
2023/01/06 00:29:49;;;;;;;68.03;50.22;;;16.30;78.10;;;;;;4927667;28;93623;-52
2023/01/06 00:32:16;;;;;;;69.50;50.28;;;16.30;78.10;;;;;;4925525;28;90937;-51
2023/01/06 00:34:41;;;;;;;67.10;49.90;;;16.30;78.00;;;;;;4920901;28;94607;-51
2023/01/06 00:37:07;;;;;;;67.70;50.15;;;16.20;78.00;;;;;;4915474;28;93339;-52
2023/01/06 00:39:33;;;;;;;68.78;50.65;;;16.30;78.00;;;;;;4924964;28;91080;-52
2023/01/06 00:42:05;;;;;;;68.18;50.75;;;16.20;78.00;;;;;;4915367;28;90770;-52
2023/01/06 00:44:35;;;;;;;67.25;50.50;;;16.20;78.20;;;;;;4924768;28;90204;-53
2023/01/06 00:47:02;;;;;;;67.90;50.63;;;16.20;77.90;;;;;;4916570;28;89903;-53
2023/01/06 00:49:28;;;;;;;67.68;50.45;;;16.20;78.10;;;;;;4921885;28;92121;-47
2023/01/06 00:51:54;;;;;;;67.60;50.40;;;16.20;78.10;;;;;;4931883;28;89871;-52
2023/01/06 00:54:20;;;;;;;66.65;49.70;;;16.20;78.00;;;;;;4923891;28;90260;-54
2023/01/06 00:56:48;;;;;;;66.68;50.00;;;16.20;77.90;;;;;;4919777;28;94537;-52
2023/01/06 00:59:16;;;;;;;67.22;50.13;;;16.20;78.10;;;;;;4916394;28;92286;-55
2023/01/06 01:01:43;;;;;;;68.53;50.03;;;16.20;77.90;;;;;;4925313;28;91624;-53
2023/01/06 01:04:09;;;;;;;67.15;50.13;;;16.20;77.90;;;;;;4925094;28;90825;-55
2023/01/06 01:06:36;;;;;;;67.90;50.08;;;16.20;77.80;;;;;;4932680;28;89590;-54
2023/01/06 01:09:02;;;;;;;66.88;50.00;;;16.20;77.90;;;;;;4934797;28;90310;-48
2023/01/06 01:14:14;;;;;;;68.25;49.85;;;16.20;77.60;;;;;;4920536;28;89997;-52
2023/01/06 01:16:40;;;;;;;67.18;50.03;;;16.20;77.70;;;;;;4921025;28;90933;-48
2023/01/06 01:19:06;;;;;;;66.80;50.15;;;16.20;77.80;;;;;;4929530;28;93986;-53
2023/01/06 01:21:32;;;;;;;66.88;50.10;;;16.20;77.80;;;;;;4920233;28;90148;-55
2023/01/06 01:23:58;;;;;;;66.65;50.15;;;16.10;77.60;;;;;;4919684;28;94048;-52
2023/01/06 01:26:23;;;;;;;66.32;50.10;;;16.10;77.70;;;;;;4921430;28;90536;-53
2023/01/06 01:28:49;;;;;;;67.15;49.85;;;16.20;77.90;;;;;;4927621;28;93861;-53
2023/01/06 01:31:15;;;;;;;66.35;49.75;;;16.10;77.70;;;;;;4921729;28;90560;-51
2023/01/06 01:33:41;;;;;;;66.50;50.17;;;16.20;77.70;;;;;;4926541;28;90046;-52
2023/01/06 01:36:08;;;;;;;66.60;50.05;;;16.10;77.70;;;;;;4930092;28;90619;-49
2023/01/06 01:38:35;;;;;;;66.65;50.05;;;16.10;77.60;;;;;;4927702;28;89985;-54
2023/01/06 01:41:01;;;;;;;65.97;50.00;;;16.10;77.70;;;;;;4916227;28;90895;-53
2023/01/06 01:43:46;;;;;;;66.07;49.90;;;16.10;77.80;;;;;;4923022;28;90818;-53
2023/01/06 01:46:15;;;;;;;66.72;49.95;;;16.10;77.70;;;;;;4915734;28;93542;-51
2023/01/06 01:48:41;;;;;;;66.13;49.83;;;16.10;77.90;;;;;;4927798;28;91281;-52
2023/01/06 01:51:10;;;;;;;66.13;49.90;;;16.10;78.10;;;;;;4923133;28;91312;-47
2023/01/06 01:53:44;;;;;;;66.57;50.42;;;16.00;77.80;;;;;;4922820;28;90251;-51
2023/01/06 01:56:20;;;;;;;67.07;50.13;;;16.00;77.60;;;;;;4927318;28;93062;-51
2023/01/06 01:58:52;;;;;;;66.57;49.90;;;16.10;77.70;;;;;;4927478;28;92652;-52
2023/01/06 02:01:18;;;;;;;65.97;49.88;;;16.10;77.50;;;;;;4929695;28;90763;-53
2023/01/06 02:03:44;;;;;;;65.75;49.45;;;16.10;77.60;;;;;;4933119;28;91569;-55
2023/01/06 02:06:15;;;;;;;65.88;49.70;;;16.00;77.50;;;;;;4925681;28;91663;-54
2023/01/06 02:09:34;;;;;;;66.97;49.85;;;16.00;77.50;;;;;;4924558;28;90584;-46
2023/01/06 02:12:00;;;;;;;66.97;49.47;;;16.00;77.60;;;;;;4893857;28;95593;-52
2023/01/06 02:14:28;;;;;;;66.22;49.97;;;16.00;77.50;;;;;;4917795;28;90905;-51
2023/01/06 02:17:15;;;;;;;65.57;49.50;;;16.00;77.50;;;;;;4923309;28;90574;-50
2023/01/06 02:19:46;;;;;;;65.88;49.63;;;16.00;77.50;;;;;;4919494;28;90413;-50
2023/01/06 02:22:22;;;;;;;67.20;50.00;;;16.00;77.60;;;;;;4918186;28;92414;-51
2023/01/06 02:25:22;;;;;;;65.53;49.58;;;15.90;77.50;;;;;;4913148;28;93295;-54
2023/01/06 02:27:54;;;;;;;65.43;49.60;;;16.00;77.70;;;;;;4910750;28;94131;-50
2023/01/06 02:30:39;;;;;;;65.97;49.97;;;16.00;77.50;;;;;;4916868;28;91515;-48
2023/01/06 02:33:07;;;;;;;67.35;49.50;;;15.90;77.50;;;;;;4931296;28;90654;-53
2023/01/06 02:35:48;;;;;;;65.93;49.83;;;16.00;77.50;;;;;;4919710;28;91963;-53
2023/01/06 02:38:13;;;;;;;65.13;49.45;;;15.90;77.60;;;;;;4929569;28;90112;-50
2023/01/06 02:40:54;;;;;;;66.22;49.80;;;16.00;77.60;;;;;;4919415;28;93387;-52
2023/01/06 02:43:59;;;;;;;66.97;50.40;;;16.00;77.50;;;;;;4909875;28;91962;-52
2023/01/06 02:46:58;;;;;;;65.60;49.75;;;15.90;77.40;;;;;;4894662;28;89629;-52
2023/01/06 02:49:32;;;;;;;66.07;49.80;;;15.90;77.50;;;;;;4919891;28;92346;-52
2023/01/06 02:52:13;;;;;;;66.53;50.03;;;15.90;77.50;;;;;;4930568;28;89806;-53
2023/01/06 02:55:01;;;;;;;67.35;49.80;;;15.90;77.50;;;;;;4917216;28;92765;-52
2023/01/06 02:57:51;;;;;;;65.07;49.75;;;15.90;77.40;;;;;;4922366;28;89874;-51
2023/01/06 03:00:31;;;;;;;67.72;49.80;;;15.90;77.40;;;;;;4935287;28;89665;-53
2023/01/06 03:03:00;;;;;;;66.60;49.78;;;15.90;77.30;;;;;;4923305;28;90579;-50
2023/01/06 03:05:27;;;;;;;66.40;49.47;;;15.90;77.30;;;;;;4926963;28;89664;-52
2023/01/06 03:07:54;;;;;;;66.22;49.22;;;15.90;77.30;;;;;;4934552;28;91726;-53
2023/01/06 03:10:23;;;;;;;66.93;49.90;;;15.90;77.50;;;;;;4919239;28;91513;-53
2023/01/06 03:13:01;;;;;;;66.20;49.63;;;15.90;77.30;;;;;;4923399;28;90310;-50
2023/01/06 03:15:27;;;;;;;66.70;49.85;;;15.80;77.30;;;;;;4920449;28;92331;-49
2023/01/06 03:17:53;;;;;;;65.90;49.55;;;15.80;77.30;;;;;;4922177;28;90599;-53
2023/01/06 03:20:19;;;;;;;65.43;49.40;;;15.90;77.30;;;;;;4922440;28;93383;-52
2023/01/06 03:22:44;;;;;;;65.63;49.72;;;15.80;77.40;;;;;;4931295;28;90897;-53
2023/01/06 03:25:11;;;;;;;65.72;49.63;;;15.80;77.30;;;;;;4927630;28;92294;-49
2023/01/06 03:27:36;;;;;;;66.97;49.28;;;15.80;77.40;;;;;;4939966;28;90154;-53
2023/01/06 03:30:09;;;;;;;65.80;49.88;;;15.80;77.30;;;;;;4931688;28;90274;-52
2023/01/06 03:32:42;;;;;;;67.68;49.55;;;15.80;77.40;;;;;;4924108;28;91803;-52
2023/01/06 03:35:19;;;;;;;65.38;49.67;;;15.80;77.30;;;;;;4927942;28;90801;-49
2023/01/06 03:38:12;;;;;;;65.95;50.13;;;15.80;77.20;;;;;;4926568;28;90231;-50
2023/01/06 03:40:47;;;;;;;66.35;49.88;;;15.80;77.30;;;;;;4917206;28;89844;-54
2023/01/06 03:43:28;;;;;;;65.50;49.50;;;15.70;77.30;;;;;;4928088;28;90191;-52
2023/01/06 03:46:06;;;;;;;65.38;49.83;;;15.80;77.50;;;;;;4926780;28;92112;-54
2023/01/06 03:48:51;;;;;;;65.55;49.63;;;15.70;77.20;;;;;;4918016;28;92540;-51
2023/01/06 03:51:38;;;;;;;66.15;49.58;;;15.70;77.20;;;;;;4924298;28;89444;-52
2023/01/06 03:54:21;;;;;;;66.05;49.53;;;15.80;77.40;;;;;;4924521;28;91189;-53
2023/01/06 03:56:54;;;;;;;64.95;49.58;;;15.70;77.30;;;;;;4931918;28;90460;-54
2023/01/06 03:59:25;;;;;;;65.25;49.30;;;15.70;77.40;;;;;;4923076;28;92371;-48
2023/01/06 04:01:51;;;;;;;65.07;49.33;;;15.70;77.30;;;;;;4925359;28;90332;-49
2023/01/06 04:04:17;;;;;;;65.85;49.22;;;15.70;77.40;;;;;;4928439;28;93178;-51
2023/01/06 04:06:43;;;;;;;65.38;49.75;;;15.70;77.40;;;;;;4924672;28;91734;-53
2023/01/06 04:09:09;;;;;;;65.75;49.25;;;15.70;77.30;;;;;;4920195;28;89804;-50
2023/01/06 04:14:20;;;;;;;65.55;49.55;;;15.70;77.20;;;;;;4924807;28;91715;-49
2023/01/06 04:16:45;;;;;;;66.57;49.47;;;15.70;77.30;;;;;;4924887;28;91810;-49
2023/01/06 04:19:11;;;;;;;65.63;49.30;;;15.70;77.20;;;;;;4918592;28;90783;-51
2023/01/06 04:21:36;;;;;;;66.13;49.75;;;15.70;77.30;;;;;;4926671;28;89780;-48
2023/01/06 04:24:03;;;;;;;64.85;49.13;;;15.70;77.20;;;;;;4933159;28;90941;-53
2023/01/06 04:26:28;;;;;;;65.05;49.25;;;15.70;77.30;;;;;;4922149;28;90954;-49
2023/01/06 04:28:54;;;;;;;64.68;49.40;;;15.70;77.20;;;;;;4911859;28;93903;-51
2023/01/06 04:31:20;;;;;;;65.05;49.50;;;15.70;77.20;;;;;;4922063;28;91577;-51
2023/01/06 04:33:45;;;;;;;64.80;49.25;;;15.70;77.20;;;;;;4924028;28;89533;-52
2023/01/06 04:36:11;;;;;;;64.80;49.42;;;15.70;77.10;;;;;;4921334;28;90413;-52
2023/01/06 04:38:36;;;;;;;65.95;49.63;;;15.60;77.10;;;;;;4919618;28;90817;-49
2023/01/06 04:41:02;;;;;;;65.25;49.33;;;15.60;77.10;;;;;;4922872;28;91813;-51
2023/01/06 04:43:28;;;;;;;65.07;49.33;;;15.60;77.30;;;;;;4929703;28;91254;-50
2023/01/06 04:45:57;;;;;;;65.78;49.47;;;15.60;77.30;;;;;;4905385;28;92427;-50
2023/01/06 04:48:23;;;;;;;66.18;49.25;;;15.60;77.30;;;;;;4926932;28;90957;-52
2023/01/06 04:50:49;;;;;;;65.82;49.78;;;15.60;77.20;;;;;;4920209;28;95581;-52
2023/01/06 04:53:14;;;;;;;65.93;49.70;;;15.60;77.20;;;;;;4932404;28;91414;-53
2023/01/06 04:55:41;;;;;;;66.38;49.42;;;15.60;76.90;;;;;;4912969;28;90396;-53
2023/01/06 04:58:06;;;;;;;65.03;49.47;;;15.70;77.20;;;;;;4919643;28;92307;-51
2023/01/06 05:00:32;;;;;;;64.97;49.42;;;15.70;77.20;;;;;;4911933;28;92637;-50
2023/01/06 05:02:58;;;;;;;65.70;49.35;;;15.60;77.20;;;;;;4919644;28;95634;-51
2023/01/06 05:05:24;;;;;;;67.70;49.13;;;15.60;77.10;;;;;;4925750;28;91272;-49
2023/01/06 05:07:53;;;;;;;65.13;49.47;;;15.60;77.30;;;;;;4923150;28;90151;-51
2023/01/06 05:10:19;;;;;;;65.38;49.42;;;15.60;77.10;;;;;;4919656;28;92657;-52
2023/01/06 05:12:44;;;;;;;65.10;49.47;;;15.60;77.20;;;;;;4915638;28;90942;-52
2023/01/06 05:15:10;;;;;;;64.72;49.42;;;15.60;77.00;;;;;;4919437;28;90017;-50
2023/01/06 05:17:36;;;;;;;64.90;49.25;;;15.60;77.10;;;;;;4917474;28;92421;-48
2023/01/06 05:20:02;;;;;;;64.85;49.20;;;15.60;77.10;;;;;;4926429;28;89646;-52
2023/01/06 05:22:28;;;;;;;65.53;49.50;;;15.60;77.00;;;;;;4918228;28;91871;-50
2023/01/06 05:24:54;;;;;;;65.30;49.30;;;15.60;77.10;;;;;;4921139;28;91129;-52
2023/01/06 05:27:19;;;;;;;65.57;49.15;;;15.60;77.20;;;;;;4916123;28;90346;-54
2023/01/06 05:29:45;;;;;;;65.68;49.47;;;15.60;77.10;;;;;;4907149;28;91141;-49
2023/01/06 05:32:11;;;;;;;65.82;49.33;;;15.60;77.10;;;;;;4927636;28;95227;-54
2023/01/06 05:34:36;;;;;;;65.00;49.38;;;15.60;77.10;;;;;;4918223;28;89951;-53
2023/01/06 05:37:02;;;;;;;65.45;49.45;;;15.60;77.10;;;;;;4917424;28;91273;-53
2023/01/06 05:39:28;;;;;;;65.03;49.17;;;15.60;77.90;;;;;;4924760;28;90217;-54
2023/01/06 05:41:53;;;;;;;64.60;49.08;;;15.60;77.00;;;;;;4919807;28;91873;-49
2023/01/06 05:44:19;;;;;;;66.07;49.58;;;15.60;77.00;;;;;;4914470;28;95431;-53
2023/01/06 05:46:45;;;;;;;65.60;49.55;;;15.60;77.00;;;;;;4906594;28;94172;-55
2023/01/06 05:49:10;;;;;;;66.13;49.45;;;15.60;77.10;;;;;;4930711;28;95123;-55
2023/01/06 05:51:36;;;;;;;64.25;48.88;;;15.60;77.10;;;;;;4917999;28;90907;-52
2023/01/06 05:54:07;;;;;;;64.90;49.20;;;15.60;77.10;;;;;;4911529;28;90537;-52
2023/01/06 05:56:33;;;;;;;65.25;49.65;;;15.50;77.00;;;;;;4919218;28;91847;-53
2023/01/06 05:58:59;;;;;;;65.28;49.28;;;15.60;77.00;;;;;;4926912;28;90116;-50
2023/01/06 06:01:27;;;;;;;65.63;49.55;;;15.60;77.10;;;;;;4915796;28;93156;-52
2023/01/06 06:03:53;;;;;;;65.15;49.08;;;15.50;77.00;;;;;;4925089;28;97073;-50
2023/01/06 06:06:21;;;;;;;65.50;49.60;;;15.60;77.00;;;;;;4928410;28;90720;-54
2023/01/06 06:08:47;;;;;;;67.43;49.63;;;15.60;77.10;;;;;;4911977;28;89788;-49
2023/01/06 06:11:15;;;;;;;65.47;49.53;;;15.60;77.00;;;;;;4922752;28;91467;-49
2023/01/06 06:13:54;;;;;;;66.50;49.17;;;15.60;77.00;;;;;;4911686;28;95228;-47
2023/01/06 06:16:23;;;;;;;65.53;49.28;;;15.50;76.90;;;;;;4933710;28;89570;-51
2023/01/06 06:18:51;;;;;;;66.43;49.15;;;15.50;77.00;;;;;;4929856;28;90737;-53
2023/01/06 06:21:19;;;;;;;65.05;49.25;;;15.50;77.10;;;;;;4913463;28;90141;-54
2023/01/06 06:23:45;;;;;;;67.25;49.00;;;15.50;77.10;;;;;;4914651;28;91069;-51
2023/01/06 06:26:11;;;;;;;65.18;49.15;;;15.50;77.00;;;;;;4917057;28;92475;-53
2023/01/06 06:28:38;;;;;;;65.45;49.22;;;15.50;76.90;;;;;;4923958;28;90276;-54
2023/01/06 06:31:13;;;;;;;67.10;49.28;;;15.50;76.90;;;;;;4918363;28;91705;-50
2023/01/06 06:33:39;;;;;;;64.57;48.85;;;15.50;77.10;;;;;;4917765;28;91027;-48
2023/01/06 06:36:10;;;;;;;64.75;49.55;;;15.50;77.10;;;;;;4919444;28;90605;-46
2023/01/06 06:38:36;;;;;;;65.82;49.33;;;15.50;77.10;;;;;;4926424;28;90399;-54
2023/01/06 06:41:02;;;;;;;65.88;49.03;;;15.50;77.00;;;;;;4918417;28;92757;-53
2023/01/06 06:43:28;;;;;;;64.95;49.28;;;15.50;77.00;;;;;;4921607;28;90530;-53
2023/01/06 06:45:54;;;;;;;64.00;48.92;;;15.50;77.10;;;;;;4942638;28;91478;-47
2023/01/06 06:48:19;;;;;;;65.32;49.47;;;15.50;77.20;;;;;;4928965;28;91796;-54
2023/01/06 06:50:45;;;;;;;67.75;49.78;;;15.50;77.10;;;;;;4925170;28;95651;-53
2023/01/06 06:53:11;;;;;;;64.50;49.08;;;15.50;77.00;;;;;;4933536;28;91394;-52
2023/01/06 06:55:36;;;;;;;65.55;49.15;;;15.50;77.10;;;;;;4928638;28;89864;-52
2023/01/06 06:58:02;;;;;;;64.70;49.17;;;15.50;77.10;;;;;;4918499;28;90039;-52
2023/01/06 07:00:27;;;;;;;68.22;49.45;;;15.50;77.10;;;;;;4920597;28;90448;-51
2023/01/06 07:02:53;;;;;;;65.45;49.05;;;15.50;77.10;;;;;;4923331;28;90424;-46
2023/01/06 07:05:19;;;;;;;64.60;49.15;;;15.50;77.20;;;;;;4931495;28;90137;-50
2023/01/06 07:07:44;;;;;;;64.97;49.22;;;15.50;77.30;;;;;;4922204;28;91581;-52
2023/01/06 07:10:15;;;;;;;65.05;49.38;;;15.50;77.20;;;;;;4919148;28;89750;-50
2023/01/06 07:12:41;;;;;;;66.80;49.20;;;15.50;77.30;;;;;;4934057;28;89900;-51
2023/01/06 07:15:07;;;;;;;66.95;49.45;;;15.50;77.30;;;;;;4926397;28;90628;-54
2023/01/06 07:17:33;;;;;;;66.22;49.15;;;15.50;78.10;;;;;;4928054;28;89699;-53
2023/01/06 07:19:59;;;;;;;64.43;49.00;;;15.50;77.30;;;;;;4912231;28;94358;-50
2023/01/06 07:22:24;;;;;;;65.50;49.28;;;15.50;77.40;;;;;;4926029;28;95053;-47
2023/01/06 07:24:50;;;;;;;65.97;49.30;;;15.50;77.50;;;;;;4920131;28;91703;-54
2023/01/06 07:27:16;;;;;;;66.50;49.08;;;15.50;77.50;;;;;;4922058;28;90502;-53
2023/01/06 07:29:42;;;;;;;67.65;49.55;;;15.50;77.70;;;;;;4927906;28;90700;-54
2023/01/06 07:32:07;;;;;;;65.95;49.58;;;15.50;77.60;;;;;;4920578;28;94393;-52
2023/01/06 07:34:33;;;;;;;66.15;49.42;;;15.50;77.50;;;;;;4917245;28;92950;-55
2023/01/06 07:36:58;;;;;;;66.90;49.72;;;15.50;77.50;;;;;;4919439;28;91162;-52
2023/01/06 07:39:24;;;;;;;71.78;49.38;;;15.40;77.60;;;;;;4926642;28;91972;-51
2023/01/06 07:41:50;;;;;;;68.05;49.58;;;15.50;77.70;;;;;;4933079;28;90817;-51
2023/01/06 07:44:15;;;;;;;65.90;49.58;;;15.40;77.70;;;;;;4919868;28;91918;-54
2023/01/06 07:46:41;;;;;;;67.28;49.28;;;15.50;77.70;;;;;;4924927;28;92960;-52
2023/01/06 07:49:06;;;;;;;65.07;49.20;;;15.50;77.90;;;;;;4936574;28;90277;-51
2023/01/06 07:51:32;;;;;;;66.68;49.53;;;15.50;77.80;;;;;;4922912;28;91323;-47
2023/01/06 07:53:57;;;;;;;65.85;49.10;;;15.50;77.80;;;;;;4925387;28;90278;-50
2023/01/06 07:56:23;;;;;;;67.00;49.55;;;15.50;77.90;;;;;;4933529;28;89234;-50
2023/01/06 07:58:49;;;;;;;67.28;49.70;;;15.50;77.90;;;;;;4921749;28;92394;-51
2023/01/06 08:01:15;;;;;;;66.10;49.03;;;15.50;77.90;;;;;;4922596;28;90111;-51
2023/01/06 08:03:41;;;;;;;66.25;49.45;;;15.50;77.80;;;;;;4921840;28;93274;-52
2023/01/06 08:06:09;;;;;;;65.10;49.22;;;15.50;77.90;;;;;;4929846;28;89541;-52
2023/01/06 08:08:39;;;;;;;67.85;49.13;;;15.50;77.90;;;;;;4933804;28;90235;-52
2023/01/06 08:11:06;;;;;;;68.72;49.08;;;15.50;78.00;;;;;;4932371;28;89973;-51
2023/01/06 08:13:32;;;;;;;66.50;49.45;;;15.50;77.90;;;;;;4922434;28;93758;-52
2023/01/06 08:15:59;;;;;;;65.38;49.05;;;15.40;77.90;;;;;;4938361;28;89500;-52
2023/01/06 08:18:26;;;;;;;66.50;49.20;;;15.40;78.10;;;;;;4922828;28;91903;-49
2023/01/06 08:20:52;;;;;;;67.40;49.28;;;15.50;78.20;;;;;;4919345;28;91232;-52
2023/01/06 08:23:18;;;;;;;65.70;49.47;;;15.50;78.10;;;;;;4926457;28;91817;-49
2023/01/06 08:25:43;;;;;;;66.60;49.25;;;15.50;78.20;;;;;;4916219;28;92430;-52
2023/01/06 08:28:09;;;;;;;67.20;48.90;;;15.50;78.10;;;;;;4925232;28;92262;-49
2023/01/06 08:30:38;;;;;;;65.63;49.67;;;15.60;77.90;;;;;;4921906;28;92531;-50
2023/01/06 08:33:04;;;;;;;66.82;49.15;;;15.60;77.50;;;;;;4935826;28;89954;-51
2023/01/06 08:35:30;;;;;;;65.55;49.10;;;15.70;77.40;;;;;;4916980;28;92798;-52
2023/01/06 08:37:56;;;;;;;65.43;49.75;;;15.70;77.30;;;;;;4925504;28;91044;-49
2023/01/06 08:40:22;;;;;;;67.53;49.92;;;15.70;77.40;;;;;;4912480;28;90653;-49
2023/01/06 08:42:47;;;;;;;65.93;49.65;;;15.70;77.30;;;;;;4922754;28;90547;-50
2023/01/06 08:45:13;;;;;;;67.00;49.67;;;15.80;77.50;;;;;;4922450;28;92974;-50
2023/01/06 08:47:39;;;;;;;66.85;49.80;;;15.80;77.40;;;;;;4923190;28;93669;-49
2023/01/06 08:50:05;;;;;;;66.78;49.90;;;15.80;77.40;;;;;;4925102;28;91737;-53
2023/01/06 08:52:31;;;;;;;69.03;50.78;;;15.80;77.80;;;;;;4915455;28;93701;-52
2023/01/06 08:54:58;;;;;;;72.38;50.88;;;15.80;78.80;;;;;;4923561;28;90258;-51
2023/01/06 08:57:24;;;;;;;79.03;51.72;;;15.80;78.40;;;;;;4913752;28;90680;-46
2023/01/06 08:59:50;;;;;;;79.90;52.88;;;15.80;79.20;;;;;;4918410;28;89936;-53
2023/01/06 09:02:15;;;;;;;76.00;52.33;;;15.80;79.60;;;;;;4919473;28;90138;-49
2023/01/06 09:04:41;;;;;;;76.05;53.08;;;15.80;80.60;;;;;;4921284;28;90505;-52
2023/01/06 09:07:07;;;;;;;74.97;52.95;;;15.90;81.00;;;;;;4929295;28;90993;-50
2023/01/06 09:09:33;;;;;;;79.25;53.88;;;15.90;80.70;;;;;;4926284;28;89443;-47
2023/01/06 09:11:58;;;;;;;79.55;53.20;;;15.90;81.50;;;;;;4911720;28;91039;-50
2023/01/06 09:14:24;;;;;;;83.80;54.88;;;16.00;82.40;;;;;;4904240;28;90202;-48
2023/01/06 09:16:50;;;;;;;87.43;54.50;;;16.00;82.80;;;;;;4911219;28;91355;-49
2023/01/06 09:19:15;;;;;;;85.28;54.38;;;16.00;82.20;;;;;;4903616;28;90579;-53
2023/01/06 09:21:41;;;;;;;84.95;53.80;;;16.00;81.90;;;;;;4906839;28;92021;-53
2023/01/06 09:24:12;;;;;;;78.55;52.92;;;16.00;81.50;;;;;;4921166;28;90073;-54
2023/01/06 09:26:38;;;;;;;78.57;53.17;;;16.00;81.20;;;;;;4919520;28;90485;-52
2023/01/06 09:29:03;;;;;;;80.00;53.38;;;16.00;81.20;;;;;;4918327;28;93036;-50
2023/01/06 09:31:29;;;;;;;76.90;53.30;;;16.00;81.20;;;;;;4910606;28;91228;-48
2023/01/06 09:33:55;;;;;;;74.03;51.90;;;16.00;80.90;;;;;;4926164;28;90783;-46
2023/01/06 09:36:21;;;;;;;75.18;53.10;;;16.00;80.60;;;;;;4918484;28;93361;-51
2023/01/06 09:38:47;;;;;;;75.97;53.08;;;16.00;80.50;;;;;;4906727;28;90219;-48
2023/01/06 09:41:34;;;;;;;78.28;53.35;;;16.00;80.40;;;;;;4903074;28;92896;-48
2023/01/06 09:44:28;;;;;;;77.65;52.80;;;16.00;80.70;;;;;;4909459;28;91753;-49
2023/01/06 09:46:55;;;;;;;74.82;52.55;;;16.00;81.00;;;;;;4914364;28;90576;-52
2023/01/06 09:49:24;;;;;;;77.85;52.33;;;16.00;80.90;;;;;;4915797;28;90586;-49
2023/01/06 09:51:58;;;;;;;76.03;52.40;;;16.00;81.00;;;;;;4916878;28;91812;-46
2023/01/06 09:54:32;;;;;;;70.93;51.83;;;16.00;80.90;;;;;;4911307;28;93314;-51
2023/01/06 09:57:05;;;;;;;75.88;52.40;;;16.00;80.60;;;;;;4906258;28;91587;-46
2023/01/06 09:59:47;;;;;;;74.85;52.53;;;16.00;81.00;;;;;;4906243;28;93526;-46
2023/01/06 10:02:23;;;;;;;77.45;52.75;;;16.00;80.70;;;;;;4916176;28;91487;-49
2023/01/06 10:04:48;;;;;;;73.18;52.08;;;16.00;80.60;;;;;;4924247;28;89935;-50
2023/01/06 10:07:18;;;;;;;78.30;52.22;;;16.00;80.30;;;;;;4928015;28;91710;-51
2023/01/06 10:10:03;;;;;;;72.93;52.15;;;16.00;80.40;;;;;;4928602;28;91465;-51
2023/01/06 10:12:48;;;;;;;73.70;52.17;;;16.00;80.20;;;;;;4912008;28;91590;-51
2023/01/06 10:15:19;;;;;;;71.63;51.53;;;16.00;80.30;;;;;;4914396;28;91732;-47
2023/01/06 10:17:46;;;;;;;70.38;51.30;;;16.00;80.10;;;;;;4915738;28;91399;-51
2023/01/06 10:20:44;;;;;;;74.78;51.95;;;16.00;80.10;;;;;;4923100;28;91989;-49
2023/01/06 10:23:31;;;;;;;70.82;51.92;;;16.00;80.40;;;;;;4933023;28;91669;-48
2023/01/06 10:26:27;;;;;;;73.53;52.05;;;16.00;80.90;;;;;;4923747;28;90528;-48
2023/01/06 10:28:57;;;;;;;76.57;52.17;;;16.10;80.80;;;;;;4933865;28;90309;-51
2023/01/06 10:31:27;;;;;;;71.68;52.35;;;16.10;80.70;;;;;;4926529;28;89955;-52
2023/01/06 10:33:55;;;;;;;73.85;51.88;;;16.10;80.60;;;;;;4905001;28;92392;-44
2023/01/06 10:36:42;;;;;;;73.45;52.03;;;16.10;81.00;;;;;;4911630;28;99126;-52
2023/01/06 10:39:18;;;;;;;74.38;51.40;;;16.10;81.20;;;;;;4911219;28;94284;-51
2023/01/06 10:44:49;;;;;;;75.43;51.17;;;16.00;80.70;;;;;;4920704;28;90004;-49
2023/01/06 10:47:28;;;;;;;71.05;51.75;;;16.10;80.70;;;;;;4929239;28;92158;-49
2023/01/06 10:49:54;;;;;;;74.55;51.47;;;16.10;80.70;;;;;;4934874;28;90045;-48
2023/01/06 10:52:21;;;;;;;72.75;51.83;;;16.00;80.50;;;;;;4931737;28;89967;-47
2023/01/06 10:54:50;;;;;;;74.50;51.80;;;16.00;80.40;;;;;;4922019;28;90440;-52
2023/01/06 10:57:31;;;;;;;74.63;52.08;;;16.00;80.30;;;;;;4930612;28;90431;-46
2023/01/06 11:00:16;;;;;;;71.90;52.10;;;16.00;80.30;;;;;;4939994;28;90941;-47
2023/01/06 11:03:05;;;;;;;71.97;51.55;;;16.00;80.20;;;;;;4931526;28;90958;-49
2023/01/06 11:05:33;;;;;;;73.65;51.72;;;16.00;80.10;;;;;;4931395;28;89941;-49
2023/01/06 11:08:13;;;;;;;74.00;52.38;;;16.00;80.10;;;;;;4919534;28;89949;-50
2023/01/06 11:10:56;;;;;;;72.95;52.33;;;16.00;80.10;;;;;;4911271;28;91837;-47
2023/01/06 11:13:33;;;;;;;72.25;51.97;;;16.00;80.10;;;;;;4909997;28;91993;-55
2023/01/06 11:16:03;;;;;;;69.45;51.13;;;16.10;80.90;;;;;;4920783;28;93875;-45
2023/01/06 11:18:33;;;;;;;72.90;51.72;;;16.10;81.00;;;;;;4928832;28;89336;-48
2023/01/06 11:21:08;;;;;;;72.57;51.47;;;16.10;81.20;;;;;;4929153;28;93340;-47
2023/01/06 11:23:36;;;;;;;76.68;51.50;;;16.10;81.00;;;;;;4919999;28;90256;-53
2023/01/06 11:26:10;;;;;;;74.32;51.78;;;16.10;80.90;;;;;;4929692;28;92216;-51
2023/01/06 11:28:36;;;;;;;72.65;51.83;;;16.20;81.50;;;;;;4917462;28;90026;-46
2023/01/06 11:31:04;;;;;;;79.03;52.97;;;16.20;81.30;;;;;;4921215;28;90480;-48
2023/01/06 11:33:33;;;;;;;73.28;52.25;;;16.30;82.20;;;;;;4917851;28;91136;-51
2023/01/06 11:36:09;;;;;;;81.00;52.63;;;16.30;81.90;;;;;;4911276;28;90815;-51
2023/01/06 11:38:56;;;;;;;77.93;52.70;;;16.40;82.10;;;;;;4913529;28;95330;-46
2023/01/06 11:41:33;;;;;;;76.55;52.40;;;16.40;82.40;;;;;;4904412;28;91651;-46
2023/01/06 11:44:16;;;;;;;76.00;53.08;;;16.50;82.80;;;;;;4902949;28;91227;-48
2023/01/06 11:46:49;;;;;;;72.60;51.55;;;16.50;82.70;;;;;;4918263;28;95535;-48
2023/01/06 11:49:25;;;;;;;71.20;52.10;;;16.50;81.80;;;;;;4925125;28;94126;-49
2023/01/06 11:52:06;;;;;;;77.00;52.53;;;16.50;81.40;;;;;;4919790;28;91485;-51
2023/01/06 11:54:37;;;;;;;73.63;51.80;;;16.50;81.70;;;;;;4921747;28;91888;-50
2023/01/06 11:57:15;;;;;;;;;;;16.50;81.90;;;;;;4922159;28;93627;-53
2023/01/06 12:00:09;;;;;;;70.97;51.83;;;16.50;81.80;;;;;;4919739;28;90698;-46
2023/01/06 12:03:06;;;;;;;71.68;51.53;;;16.60;81.40;;;;;;4914026;28;90338;-50
2023/01/06 12:05:35;;;;;;;72.35;51.50;;;16.60;81.20;;;;;;4920795;28;90326;-48
2023/01/06 12:08:09;;;;;;;71.07;51.45;;;16.50;80.90;;;;;;4919991;28;90415;-46
2023/01/06 12:10:36;;;;;;;70.43;51.20;;;16.50;81.20;;;;;;4932986;28;90624;-49
2023/01/06 12:13:02;;;;;;;70.45;50.97;;;16.50;81.50;;;;;;4927607;28;90718;-46
2023/01/06 12:15:30;;;;;;;69.70;51.38;;;16.50;81.50;;;;;;4908800;28;91446;-47
2023/01/06 12:18:16;;;;;;;73.25;51.33;;;16.40;81.50;;;;;;4922009;28;91273;-48
2023/01/06 12:20:45;;;;;;;69.90;51.38;;;16.50;81.60;;;;;;4921273;28;91060;-48
2023/01/06 12:23:22;;;;;;;73.78;51.88;;;16.50;81.20;;;;;;4930085;28;90907;-48
2023/01/06 12:25:50;;;;;;;72.82;51.65;;;16.50;81.20;;;;;;4916362;28;90532;-46
2023/01/06 12:28:28;;;;;;;70.72;51.05;;;16.60;81.30;;;;;;4927033;28;90692;-52
2023/01/06 12:31:04;;;;;;;70.03;51.33;;;16.60;81.00;;;;;;4917525;28;91734;-51
2023/01/06 12:33:37;;;;;;;76.88;51.55;;;16.50;80.80;;;;;;4918713;28;92640;-47
2023/01/06 12:36:12;;;;;;;88.80;52.22;;;16.60;81.60;;;;;;4926798;28;89241;-49
2023/01/06 12:38:54;;;;;;;77.00;52.17;;;16.60;82.50;;;;;;4915175;28;89843;-51
2023/01/06 12:41:33;;;;;;;74.20;51.25;;;16.60;82.90;;;;;;4914725;28;90509;-51
2023/01/06 12:44:21;;;;;;;73.53;51.60;;;16.50;82.50;;;;;;4916319;28;90913;-52
2023/01/06 12:47:05;;;;;;;72.10;51.45;;;16.50;82.50;;;;;;4918579;28;90837;-50
2023/01/06 12:49:37;;;;;;;71.80;51.55;;;16.50;83.00;;;;;;4917184;28;90457;-51
2023/01/06 12:52:10;;;;;;;70.85;51.30;;;16.50;82.80;;;;;;4919156;28;95076;-51